Time;durP1;ratioP1;P1;durP2;ratioP2;P2;SDS_P1;SDS_P2;PMS_P1;PMS_P2;Temp;Humidity;BMP_temperature;BMP_pressure;BME280_temperature;BME280_humidity;BME280_pressure;Samples;Min_cycle;Max_cycle;Signal;HPM_P1;HPM_P2
2023/06/07 00:01:55;;;;;;;25.35;19.52;;;;;;;;;;10431589;28;20033;-87
2023/06/07 00:07:00;;;;;;;24.80;19.42;;;;;;;;;;10449920;28;20041;-86
2023/06/07 00:12:01;;;;;;;22.65;17.98;;;;;;;;;;10439360;28;20083;-87
2023/06/07 00:17:02;;;;;;;22.42;17.52;;;;;;;;;;10447135;28;20048;-89
2023/06/07 00:22:03;;;;;;;26.50;20.40;;;;;;;;;;10449765;28;20478;-87
2023/06/07 00:27:05;;;;;;;24.98;17.77;;;;;;;;;;10424451;28;20361;-88
2023/06/07 00:32:07;;;;;;;24.15;17.42;;;;;;;;;;10446048;28;20108;-87
2023/06/07 00:37:08;;;;;;;22.38;18.02;;;;;;;;;;10431083;28;20031;-87
2023/06/07 00:42:10;;;;;;;23.40;17.95;;;;;;;;;;10440263;28;20131;-88
2023/06/07 00:47:14;;;;;;;22.38;18.25;;;;;;;;;;10437201;28;20021;-89
2023/06/07 00:52:15;;;;;;;22.98;17.33;;;;;;;;;;10425173;28;20063;-87
2023/06/07 00:57:18;;;;;;;22.05;16.42;;;;;;;;;;10425224;23;20136;-87
2023/06/07 01:02:19;;;;;;;21.08;16.10;;;;;;;;;;10434444;28;20569;-87
2023/06/07 01:07:24;;;;;;;18.35;14.75;;;;;;;;;;10439278;28;20115;-87
2023/06/07 01:12:28;;;;;;;22.20;16.73;;;;;;;;;;10428679;28;20066;-88
2023/06/07 01:17:30;;;;;;;20.25;15.48;;;;;;;;;;10434643;28;20029;-88
2023/06/07 01:22:33;;;;;;;22.75;15.43;;;;;;;;;;10445439;28;20028;-86
2023/06/07 01:27:36;;;;;;;19.65;15.20;;;;;;;;;;10434822;28;20039;-86
2023/06/07 01:32:40;;;;;;;19.08;14.05;;;;;;;;;;10419413;28;20029;-89
2023/06/07 01:37:44;;;;;;;19.02;14.73;;;;;;;;;;10460126;23;20053;-88
2023/06/07 01:42:46;;;;;;;19.98;14.52;;;;;;;;;;10442927;23;20562;-88
2023/06/07 01:47:48;;;;;;;20.05;15.40;;;;;;;;;;10451615;28;20028;-88
2023/06/07 01:52:49;;;;;;;16.88;14.05;;;;;;;;;;10454908;22;20619;-88
2023/06/07 01:58:03;;;;;;;17.83;14.43;;;;;;;;;;10428159;28;20131;-87
2023/06/07 02:03:20;;;;;;;20.75;15.15;;;;;;;;;;10430919;28;20032;-88
2023/06/07 02:08:34;;;;;;;18.98;14.60;;;;;;;;;;10443602;28;20021;-88
2023/06/07 02:13:37;;;;;;;19.55;14.70;;;;;;;;;;10455132;28;20375;-87
2023/06/07 02:18:40;;;;;;;18.80;14.90;;;;;;;;;;10445595;28;20025;-89
2023/06/07 02:23:41;;;;;;;19.27;14.40;;;;;;;;;;10440516;28;20021;-88
2023/06/07 02:28:42;;;;;;;19.20;15.40;;;;;;;;;;10435645;28;20345;-86
2023/06/07 02:33:43;;;;;;;19.67;15.48;;;;;;;;;;10443278;28;20106;-87
2023/06/07 02:38:44;;;;;;;20.92;16.40;;;;;;;;;;10452278;28;20112;-87
2023/06/07 02:43:45;;;;;;;20.90;16.23;;;;;;;;;;10447925;28;20021;-89
2023/06/07 02:48:47;;;;;;;21.25;15.93;;;;;;;;;;10480997;22;20079;-89
2023/06/07 02:53:49;;;;;;;21.73;16.65;;;;;;;;;;10435987;28;20021;-87
2023/06/07 02:58:52;;;;;;;19.23;14.75;;;;;;;;;;10436522;28;20048;-87
2023/06/07 03:03:53;;;;;;;21.92;16.95;;;;;;;;;;10445691;28;20371;-87
2023/06/07 03:08:54;;;;;;;21.13;16.33;;;;;;;;;;10446076;28;20031;-88
2023/06/07 03:13:55;;;;;;;23.58;16.75;;;;;;;;;;10436185;28;20416;-87
2023/06/07 03:18:56;;;;;;;21.83;15.98;;;;;;;;;;10444323;28;20128;-86
2023/06/07 03:23:57;;;;;;;20.95;15.63;;;;;;;;;;10436531;28;20033;-87
2023/06/07 03:28:58;;;;;;;21.30;15.60;;;;;;;;;;10456386;28;20110;-88
2023/06/07 03:33:59;;;;;;;22.20;16.63;;;;;;;;;;10452692;28;20080;-87
2023/06/07 03:39:00;;;;;;;21.08;15.63;;;;;;;;;;10463834;28;20041;-86
2023/06/07 03:44:01;;;;;;;23.83;17.23;;;;;;;;;;10433484;28;20021;-87
2023/06/07 03:49:02;;;;;;;19.42;14.57;;;;;;;;;;10447943;28;20065;-86
2023/06/07 03:54:03;;;;;;;18.20;14.73;;;;;;;;;;10440021;28;20078;-88
2023/06/07 03:59:04;;;;;;;19.45;14.85;;;;;;;;;;10432626;28;20037;-88
2023/06/07 04:04:06;;;;;;;20.42;15.35;;;;;;;;;;10454900;28;20028;-88
2023/06/07 04:09:07;;;;;;;18.23;14.80;;;;;;;;;;10436851;28;20033;-89
2023/06/07 04:14:08;;;;;;;19.60;14.38;;;;;;;;;;10445447;28;20024;-87
2023/06/07 04:19:10;;;;;;;18.60;13.63;;;;;;;;;;10434073;28;20051;-87
2023/06/07 04:24:11;;;;;;;17.30;13.15;;;;;;;;;;10445773;28;20040;-88
2023/06/07 04:29:13;;;;;;;17.50;14.13;;;;;;;;;;10444249;28;20028;-86
2023/06/07 04:34:17;;;;;;;18.33;14.88;;;;;;;;;;10451463;28;20032;-87
2023/06/07 04:39:20;;;;;;;16.87;13.87;;;;;;;;;;10461463;28;20373;-88
2023/06/07 04:44:28;;;;;;;17.05;13.93;;;;;;;;;;10433160;28;20025;-88
2023/06/07 04:49:33;;;;;;;18.15;14.18;;;;;;;;;;10434179;28;20073;-86
2023/06/07 04:54:36;;;;;;;18.17;13.60;;;;;;;;;;10449197;28;20013;-89
2023/06/07 05:00:14;;;;;;;21.05;14.68;;;;;;;;;;10439483;28;20082;-89
2023/06/07 05:05:15;;;;;;;18.17;14.20;;;;;;;;;;10435941;28;20029;-91
2023/06/07 05:10:19;;;;;;;15.52;12.10;;;;;;;;;;10443662;28;20083;-90
2023/06/07 05:15:23;;;;;;;14.82;12.05;;;;;;;;;;10447970;28;20051;-90
2023/06/07 05:20:25;;;;;;;15.88;11.90;;;;;;;;;;10427614;28;20033;-88
2023/06/07 05:25:26;;;;;;;15.63;12.27;;;;;;;;;;10457119;28;20071;-87
2023/06/07 05:30:27;;;;;;;17.02;12.55;;;;;;;;;;10440329;28;20022;-91
2023/06/07 05:35:28;;;;;;;15.55;12.13;;;;;;;;;;10438101;28;20041;-90
2023/06/07 05:40:29;;;;;;;15.32;11.45;;;;;;;;;;10449029;28;20035;-87
2023/06/07 05:45:30;;;;;;;13.90;11.40;;;;;;;;;;10455150;28;20484;-90
2023/06/07 05:50:33;;;;;;;16.23;11.27;;;;;;;;;;10444929;28;20043;-89
2023/06/07 05:55:34;;;;;;;17.20;12.68;;;;;;;;;;10444916;28;20009;-85
2023/06/07 06:00:37;;;;;;;18.65;11.82;;;;;;;;;;10441667;28;20041;-88
2023/06/07 06:05:38;;;;;;;14.27;10.68;;;;;;;;;;10449471;28;20029;-86
2023/06/07 06:10:39;;;;;;;15.80;11.55;;;;;;;;;;10449032;28;20021;-88
2023/06/07 06:15:40;;;;;;;15.15;11.70;;;;;;;;;;10435835;28;20032;-88
2023/06/07 06:20:41;;;;;;;13.25;10.80;;;;;;;;;;10417597;23;20060;-86
2023/06/07 06:25:42;;;;;;;13.93;10.38;;;;;;;;;;10389330;28;20112;-86
2023/06/07 06:30:43;;;;;;;12.20;10.45;;;;;;;;;;10401952;28;20017;-84
2023/06/07 06:35:46;;;;;;;13.45;10.57;;;;;;;;;;10403937;28;20036;-84
2023/06/07 06:40:47;;;;;;;12.15;10.05;;;;;;;;;;10403679;28;20516;-86
2023/06/07 06:45:48;;;;;;;11.65;9.45;;;;;;;;;;10396841;28;20025;-87
2023/06/07 06:50:49;;;;;;;12.30;9.48;;;;;;;;;;10415215;28;20120;-86
2023/06/07 06:55:50;;;;;;;12.27;10.30;;;;;;;;;;10411353;28;20202;-86
2023/06/07 07:00:51;;;;;;;11.32;8.90;;;;;;;;;;10395124;28;20033;-84
2023/06/07 07:05:52;;;;;;;12.40;8.88;;;;;;;;;;10403811;28;20038;-85
2023/06/07 07:10:53;;;;;;;10.10;7.82;;;;;;;;;;10408813;28;20025;-85
2023/06/07 07:15:54;;;;;;;7.90;6.88;;;;;;;;;;10408096;28;20033;-84
2023/06/07 07:20:56;;;;;;;9.10;6.93;;;;;;;;;;10415342;28;20138;-88
2023/06/07 07:25:57;;;;;;;8.23;5.80;;;;;;;;;;10407897;28;20053;-88
2023/06/07 07:30:58;;;;;;;6.57;5.03;;;;;;;;;;10407369;28;20025;-88
2023/06/07 07:36:00;;;;;;;5.78;5.18;;;;;;;;;;10404906;28;20029;-90
2023/06/07 07:41:01;;;;;;;7.13;5.07;;;;;;;;;;10431599;23;20049;-90
2023/06/07 07:46:02;;;;;;;5.43;4.70;;;;;;;;;;10437002;28;20048;-89
2023/06/07 07:51:03;;;;;;;5.32;4.35;;;;;;;;;;10432684;28;20025;-89
2023/06/07 07:56:04;;;;;;;6.10;5.50;;;;;;;;;;10450728;28;20025;-92
2023/06/07 08:01:08;;;;;;;5.78;4.85;;;;;;;;;;10425652;28;20128;-90
2023/06/07 08:06:09;;;;;;;5.47;4.65;;;;;;;;;;10438169;28;20036;-90
2023/06/07 08:11:10;;;;;;;6.70;5.38;;;;;;;;;;10428158;28;20096;-91
2023/06/07 08:16:11;;;;;;;6.72;5.00;;;;;;;;;;10432970;28;20116;-90
2023/06/07 08:21:12;;;;;;;7.30;5.00;;;;;;;;;;10444598;28;20071;-89
2023/06/07 08:26:15;;;;;;;5.38;4.10;;;;;;;;;;10437251;28;20440;-89
2023/06/07 08:31:17;;;;;;;5.18;4.30;;;;;;;;;;10425076;28;20021;-90
2023/06/07 08:36:18;;;;;;;5.00;4.10;;;;;;;;;;10430340;28;20401;-89
2023/06/07 08:41:21;;;;;;;5.88;4.55;;;;;;;;;;10429958;28;20045;-91
2023/06/07 08:46:23;;;;;;;4.82;4.38;;;;;;;;;;10430948;28;20021;-91
2023/06/07 08:51:25;;;;;;;5.30;4.38;;;;;;;;;;10422516;28;20028;-90
2023/06/07 08:56:28;;;;;;;4.57;4.03;;;;;;;;;;10425955;28;20033;-91
2023/06/07 09:01:29;;;;;;;6.80;3.95;;;;;;;;;;10413836;28;20507;-89
2023/06/07 09:06:34;;;;;;;5.70;4.13;;;;;;;;;;10449052;28;20114;-90
2023/06/07 09:11:35;;;;;;;6.28;4.07;;;;;;;;;;10448411;28;20414;-87
2023/06/07 09:17:02;;;;;;;5.90;4.13;;;;;;;;;;10423155;28;20025;-91
2023/06/07 09:22:04;;;;;;;4.20;3.80;;;;;;;;;;10449594;28;20040;-88
2023/06/07 09:27:06;;;;;;;6.32;3.90;;;;;;;;;;10443693;28;20025;-88
2023/06/07 09:32:37;;;;;;;5.50;3.72;;;;;;;;;;10431114;28;20021;-89
2023/06/07 09:37:42;;;;;;;5.03;3.40;;;;;;;;;;10409671;28;20060;-87
2023/06/07 09:42:44;;;;;;;7.00;4.38;;;;;;;;;;10436094;28;20131;-89
2023/06/07 09:47:45;;;;;;;4.68;3.70;;;;;;;;;;10430742;28;20017;-87
2023/06/07 09:52:55;;;;;;;6.32;3.90;;;;;;;;;;10436640;28;20028;-89
2023/06/07 09:57:56;;;;;;;6.07;4.22;;;;;;;;;;10443315;28;20034;-87
2023/06/07 10:03:05;;;;;;;4.63;4.13;;;;;;;;;;10437790;28;20538;-88
2023/06/07 10:08:07;;;;;;;5.10;3.97;;;;;;;;;;10438388;28;20040;-86
2023/06/07 10:13:08;;;;;;;4.25;3.70;;;;;;;;;;10425378;28;20514;-89
2023/06/07 10:18:16;;;;;;;7.63;3.80;;;;;;;;;;10443050;28;20037;-84
2023/06/07 10:23:26;;;;;;;4.43;2.90;;;;;;;;;;10425203;28;20521;-88
2023/06/07 10:28:43;;;;;;;3.00;2.70;;;;;;;;;;10447334;28;20452;-86
2023/06/07 10:33:45;;;;;;;7.03;3.88;;;;;;;;;;10449248;28;20032;-86
2023/06/07 10:38:46;;;;;;;4.35;3.67;;;;;;;;;;10452119;28;20488;-85
2023/06/07 10:43:48;;;;;;;3.55;3.10;;;;;;;;;;10443317;28;20566;-85
2023/06/07 10:48:50;;;;;;;3.28;2.97;;;;;;;;;;10431467;28;20017;-86
2023/06/07 10:53:53;;;;;;;3.53;2.60;;;;;;;;;;10451792;28;20029;-86
2023/06/07 10:58:55;;;;;;;3.10;2.80;;;;;;;;;;10433588;28;20033;-86
2023/06/07 11:03:57;;;;;;;3.75;2.80;;;;;;;;;;10451670;28;20627;-86
2023/06/07 11:09:17;;;;;;;3.03;2.70;;;;;;;;;;10450173;28;20016;-86
2023/06/07 11:14:18;;;;;;;3.80;2.40;;;;;;;;;;10437790;28;20199;-88
2023/06/07 11:19:19;;;;;;;2.72;2.20;;;;;;;;;;10421644;28;20733;-86
2023/06/07 11:24:21;;;;;;;4.15;2.88;;;;;;;;;;10430398;28;20036;-85
2023/06/07 11:29:22;;;;;;;3.38;2.75;;;;;;;;;;10447928;28;20037;-85
2023/06/07 11:34:23;;;;;;;6.25;3.38;;;;;;;;;;10432360;28;20027;-86
2023/06/07 11:39:34;;;;;;;4.57;2.92;;;;;;;;;;10448346;28;20108;-88
2023/06/07 11:44:36;;;;;;;2.47;2.28;;;;;;;;;;10402143;28;20145;-87
2023/06/07 11:49:38;;;;;;;4.50;2.00;;;;;;;;;;10397957;28;20207;-88
2023/06/07 11:54:43;;;;;;;4.38;2.50;;;;;;;;;;10385597;28;20034;-87
2023/06/07 11:59:44;;;;;;;;;;;;;;;;;;10370475;28;20062;-88
2023/06/07 12:04:45;;;;;;;2.78;2.58;;;;;;;;;;10372040;28;20374;-87
2023/06/07 12:09:49;;;;;;;3.22;2.80;;;;;;;;;;10371668;28;20428;-88
2023/06/07 12:15:00;;;;;;;3.08;2.78;;;;;;;;;;10379926;28;20025;-88
2023/06/07 12:20:11;;;;;;;3.40;2.38;;;;;;;;;;10370317;28;20061;-86
2023/06/07 12:25:18;;;;;;;2.75;2.20;;;;;;;;;;10380227;28;20026;-86
2023/06/07 12:30:21;;;;;;;7.10;2.92;;;;;;;;;;10367403;28;20065;-86
2023/06/07 12:35:22;;;;;;;6.10;2.27;;;;;;;;;;10373762;28;20022;-87
2023/06/07 12:40:23;;;;;;;4.18;2.28;;;;;;;;;;10384317;28;20476;-87
2023/06/07 12:45:25;;;;;;;2.92;1.90;;;;;;;;;;10445377;28;20112;-85
2023/06/07 12:50:25;;;;;;;3.03;1.95;;;;;;;;;;10429541;28;20029;-88
2023/06/07 12:55:27;;;;;;;4.40;2.42;;;;;;;;;;10425059;28;20017;-87
2023/06/07 13:00:28;;;;;;;2.22;2.03;;;;;;;;;;10431870;28;20055;-86
2023/06/07 13:05:32;;;;;;;2.08;1.92;;;;;;;;;;10446919;28;20039;-86
2023/06/07 13:10:34;;;;;;;2.40;1.73;;;;;;;;;;10428907;28;20021;-90
2023/06/07 13:15:35;;;;;;;2.00;1.80;;;;;;;;;;10435503;28;20036;-85
2023/06/07 13:20:37;;;;;;;2.30;1.70;;;;;;;;;;10445711;28;20612;-84
2023/06/07 13:25:38;;;;;;;3.88;1.90;;;;;;;;;;10444877;28;20031;-85
2023/06/07 13:30:39;;;;;;;2.80;1.83;;;;;;;;;;10444062;28;20029;-88
2023/06/07 13:35:42;;;;;;;2.65;2.15;;;;;;;;;;10414632;28;20056;-84
2023/06/07 13:40:47;;;;;;;3.10;1.90;;;;;;;;;;10412861;28;20057;-85
2023/06/07 13:45:51;;;;;;;4.50;1.70;;;;;;;;;;10429050;28;20404;-84
2023/06/07 13:50:52;;;;;;;3.95;2.05;;;;;;;;;;10406743;28;20079;-85
2023/06/07 13:55:53;;;;;;;2.10;1.90;;;;;;;;;;10441815;28;20724;-86
2023/06/07 14:00:54;;;;;;;4.43;2.50;;;;;;;;;;10424083;28;20091;-87
2023/06/07 14:05:56;;;;;;;4.75;3.70;;;;;;;;;;10421481;28;20078;-87
2023/06/07 14:10:57;;;;;;;2.33;2.00;;;;;;;;;;10417865;28;20029;-89
2023/06/07 14:15:58;;;;;;;2.05;1.85;;;;;;;;;;10416554;28;20014;-85
2023/06/07 14:20:59;;;;;;;2.80;2.10;;;;;;;;;;10393948;28;20041;-85
2023/06/07 14:26:00;;;;;;;2.38;2.17;;;;;;;;;;10406219;28;20029;-86
2023/06/07 14:31:02;;;;;;;2.47;2.28;;;;;;;;;;10421436;28;20076;-84
2023/06/07 14:36:04;;;;;;;3.05;2.53;;;;;;;;;;10444762;28;20025;-84
2023/06/07 14:41:05;;;;;;;3.85;2.67;;;;;;;;;;10442804;28;20422;-82
2023/06/07 14:46:06;;;;;;;4.05;2.78;;;;;;;;;;10426694;28;20025;-82
2023/06/07 14:51:07;;;;;;;3.78;2.47;;;;;;;;;;10441664;28;20028;-84
2023/06/07 14:56:08;;;;;;;3.67;3.17;;;;;;;;;;10412019;28;20044;-82
2023/06/07 15:01:09;;;;;;;5.20;3.30;;;;;;;;;;10422325;28;20029;-83
2023/06/07 15:06:10;;;;;;;4.57;3.00;;;;;;;;;;10439840;28;20102;-83
2023/06/07 15:11:11;;;;;;;3.05;2.75;;;;;;;;;;10444545;28;20032;-85
2023/06/07 15:16:12;;;;;;;3.72;3.30;;;;;;;;;;10434242;28;20090;-85
2023/06/07 15:21:13;;;;;;;4.07;2.80;;;;;;;;;;10434903;28;20075;-84
2023/06/07 15:26:15;;;;;;;3.33;3.03;;;;;;;;;;10416818;28;20103;-84
2023/06/07 15:31:16;;;;;;;3.28;2.92;;;;;;;;;;10434028;28;20025;-85
2023/06/07 15:36:17;;;;;;;2.97;2.75;;;;;;;;;;10433530;28;20023;-83
2023/06/07 15:41:19;;;;;;;3.60;2.90;;;;;;;;;;10441574;28;20472;-83
2023/06/07 15:46:20;;;;;;;3.58;3.25;;;;;;;;;;10452441;28;20143;-84
2023/06/07 15:51:21;;;;;;;4.82;3.60;;;;;;;;;;10447795;28;20080;-83
2023/06/07 15:56:22;;;;;;;4.32;3.15;;;;;;;;;;10421464;28;20165;-86
2023/06/07 16:01:23;;;;;;;3.72;3.28;;;;;;;;;;10435941;28;20064;-86
2023/06/07 16:06:24;;;;;;;4.35;3.72;;;;;;;;;;10431010;28;20033;-83
2023/06/07 16:11:26;;;;;;;3.50;3.20;;;;;;;;;;10436363;28;20029;-83
2023/06/07 16:16:27;;;;;;;4.20;3.85;;;;;;;;;;10434886;28;20036;-84
2023/06/07 16:21:28;;;;;;;4.68;3.75;;;;;;;;;;10433136;28;20770;-82
2023/06/07 16:26:29;;;;;;;3.65;3.35;;;;;;;;;;10446318;28;20024;-85
2023/06/07 16:31:30;;;;;;;4.43;3.80;;;;;;;;;;10430898;28;20029;-85
2023/06/07 16:36:50;;;;;;;3.92;3.55;;;;;;;;;;10443058;28;20047;-86
2023/06/07 16:41:51;;;;;;;7.50;4.25;;;;;;;;;;10430317;28;20443;-85
2023/06/07 16:46:52;;;;;;;7.88;3.58;;;;;;;;;;10427935;28;20164;-85
2023/06/07 16:51:53;;;;;;;4.00;3.60;;;;;;;;;;10424733;28;20021;-85
2023/06/07 16:56:55;;;;;;;4.10;3.65;;;;;;;;;;10430347;28;20025;-85
2023/06/07 17:07:35;;;;;;;4.00;3.67;;;;;;;;;;10447193;28;20468;-86
2023/06/07 17:23:53;;;;;;;5.75;4.63;;;;;;;;;;10439222;28;20045;-85
2023/06/07 17:29:13;;;;;;;6.45;4.32;;;;;;;;;;10423563;28;20726;-85
2023/06/07 17:34:54;;;;;;;7.28;4.38;;;;;;;;;;10419643;28;20361;-85
2023/06/07 17:39:55;;;;;;;4.30;3.90;;;;;;;;;;10421768;28;20525;-85
2023/06/07 17:45:03;;;;;;;5.35;4.35;;;;;;;;;;10426632;28;20152;-87
2023/06/07 17:50:08;;;;;;;7.65;4.20;;;;;;;;;;10444883;28;20729;-86
2023/06/07 17:55:09;;;;;;;8.17;4.93;;;;;;;;;;10400579;28;20437;-87
2023/06/07 18:00:10;;;;;;;5.20;4.38;;;;;;;;;;10436672;28;20033;-86
2023/06/07 18:05:11;;;;;;;4.72;4.22;;;;;;;;;;10426528;28;20048;-84
2023/06/07 18:10:12;;;;;;;4.90;4.40;;;;;;;;;;10424688;28;20025;-85
2023/06/07 18:15:14;;;;;;;5.35;4.72;;;;;;;;;;10421941;28;20021;-86
2023/06/07 18:20:15;;;;;;;5.40;4.70;;;;;;;;;;10427720;28;20054;-86
2023/06/07 18:25:16;;;;;;;4.78;4.28;;;;;;;;;;10445204;28;20029;-85
2023/06/07 18:30:48;;;;;;;4.95;4.45;;;;;;;;;;10444595;28;20076;-84
2023/06/07 18:35:49;;;;;;;6.55;4.90;;;;;;;;;;10418780;28;20044;-86
2023/06/07 18:40:51;;;;;;;5.97;4.75;;;;;;;;;;10444986;28;20048;-86
2023/06/07 18:51:31;;;;;;;6.28;5.35;;;;;;;;;;10447405;28;20037;-85
2023/06/07 18:56:32;;;;;;;5.30;4.78;;;;;;;;;;10434058;28;20024;-84
2023/06/07 19:01:33;;;;;;;7.72;5.03;;;;;;;;;;10446148;28;20029;-83
2023/06/07 19:06:34;;;;;;;5.72;5.10;;;;;;;;;;10445158;28;20510;-85
2023/06/07 19:11:36;;;;;;;7.55;5.50;;;;;;;;;;10427141;28;20469;-87
2023/06/07 19:16:37;;;;;;;8.15;6.35;;;;;;;;;;10424617;28;20037;-85
2023/06/07 19:21:40;;;;;;;7.53;6.35;;;;;;;;;;10421995;28;20033;-86
2023/06/07 19:27:02;;;;;;;8.57;6.45;;;;;;;;;;10424329;28;20036;-86
2023/06/07 19:32:12;;;;;;;7.75;6.95;;;;;;;;;;10402869;28;20607;-87
2023/06/07 19:37:13;;;;;;;9.98;8.00;;;;;;;;;;10386685;28;20091;-88
2023/06/07 19:42:17;;;;;;;11.90;7.90;;;;;;;;;;10403240;28;20046;-87
2023/06/07 19:47:18;;;;;;;8.70;7.50;;;;;;;;;;10395248;28;20064;-88
2023/06/07 19:52:57;;;;;;;10.02;7.38;;;;;;;;;;10408676;28;20061;-87
2023/06/07 19:58:09;;;;;;;10.13;7.15;;;;;;;;;;10383643;28;20041;-86
2023/06/07 20:03:10;;;;;;;13.18;8.85;;;;;;;;;;10403051;28;20041;-87
2023/06/07 20:08:11;;;;;;;13.35;8.35;;;;;;;;;;10459333;28;20031;-86
2023/06/07 20:13:16;;;;;;;11.68;8.55;;;;;;;;;;10470778;28;20048;-86
2023/06/07 20:18:17;;;;;;;12.53;9.10;;;;;;;;;;10414044;28;20063;-85
2023/06/07 20:23:24;;;;;;;11.88;9.35;;;;;;;;;;10428629;28;20441;-91
2023/06/07 20:28:25;;;;;;;12.45;10.02;;;;;;;;;;10451117;28;20033;-86
2023/06/07 20:33:27;;;;;;;14.32;10.85;;;;;;;;;;10431793;28;20029;-85
2023/06/07 20:38:28;;;;;;;13.40;10.25;;;;;;;;;;10423972;28;20110;-84
2023/06/07 20:43:29;;;;;;;13.45;10.48;;;;;;;;;;10390296;28;20180;-86
2023/06/07 20:48:30;;;;;;;14.18;10.63;;;;;;;;;;10432482;28;20029;-85
2023/06/07 20:53:31;;;;;;;13.65;11.00;;;;;;;;;;10429115;28;20067;-85
2023/06/07 20:58:32;;;;;;;14.63;10.50;;;;;;;;;;10426965;28;20585;-85
2023/06/07 21:03:33;;;;;;;15.40;11.13;;;;;;;;;;10414256;28;20037;-84
2023/06/07 21:08:38;;;;;;;16.50;11.52;;;;;;;;;;10443422;28;20035;-84
2023/06/07 21:13:39;;;;;;;14.03;10.63;;;;;;;;;;10448819;28;20024;-84
2023/06/07 21:18:40;;;;;;;17.08;11.82;;;;;;;;;;10429686;28;20384;-86
2023/06/07 21:23:41;;;;;;;16.50;12.00;;;;;;;;;;10448569;28;20051;-85
2023/06/07 21:28:42;;;;;;;13.20;11.10;;;;;;;;;;10448042;28;20036;-85
2023/06/07 21:33:56;;;;;;;14.50;11.15;;;;;;;;;;10446485;28;20676;-85
2023/06/07 21:38:57;;;;;;;14.50;11.60;;;;;;;;;;10435485;28;20037;-87
2023/06/07 21:43:58;;;;;;;15.70;11.52;;;;;;;;;;10429155;28;20045;-85
2023/06/07 21:48:59;;;;;;;17.00;11.30;;;;;;;;;;10446849;28;20724;-86
2023/06/07 21:54:01;;;;;;;16.17;12.40;;;;;;;;;;10433562;28;20468;-86
2023/06/07 21:59:02;;;;;;;17.60;13.13;;;;;;;;;;10428087;28;20413;-85
2023/06/07 22:04:03;;;;;;;16.42;12.93;;;;;;;;;;10427480;28;20057;-84
2023/06/07 22:09:12;;;;;;;18.95;13.02;;;;;;;;;;10410430;28;20033;-85
2023/06/07 22:14:13;;;;;;;17.73;13.52;;;;;;;;;;10451061;28;20024;-86
2023/06/07 22:19:15;;;;;;;17.50;12.82;;;;;;;;;;10444708;28;20036;-86
2023/06/07 22:24:17;;;;;;;17.58;12.85;;;;;;;;;;10449438;28;20024;-85
2023/06/07 22:29:20;;;;;;;18.52;13.10;;;;;;;;;;10433747;28;20013;-86
2023/06/07 22:34:25;;;;;;;20.33;15.10;;;;;;;;;;10435617;28;20017;-85
2023/06/07 22:39:26;;;;;;;18.30;13.38;;;;;;;;;;10429936;28;20032;-84
2023/06/07 22:44:27;;;;;;;22.33;14.00;;;;;;;;;;10450245;28;20055;-85
2023/06/07 22:49:28;;;;;;;16.77;12.18;;;;;;;;;;10438500;28;20444;-84
2023/06/07 22:54:30;;;;;;;17.63;12.88;;;;;;;;;;10447330;28;20356;-85
2023/06/07 22:59:31;;;;;;;19.25;13.07;;;;;;;;;;10452661;28;20061;-85
2023/06/07 23:04:33;;;;;;;21.35;15.27;;;;;;;;;;10433676;28;20128;-85
2023/06/07 23:09:35;;;;;;;21.73;15.32;;;;;;;;;;10423841;28;20099;-86
2023/06/07 23:14:37;;;;;;;20.15;14.70;;;;;;;;;;10407203;28;20171;-85
2023/06/07 23:19:38;;;;;;;18.83;13.85;;;;;;;;;;10418516;28;20061;-85
2023/06/07 23:24:40;;;;;;;21.15;15.45;;;;;;;;;;10443879;28;20089;-85
2023/06/07 23:29:43;;;;;;;20.35;14.45;;;;;;;;;;10434391;28;20357;-85
2023/06/07 23:34:44;;;;;;;21.75;15.85;;;;;;;;;;10432969;28;20020;-85
2023/06/07 23:39:45;;;;;;;21.08;14.45;;;;;;;;;;10448660;28;20725;-85
2023/06/07 23:44:46;;;;;;;21.17;15.18;;;;;;;;;;10450688;28;20120;-85
2023/06/07 23:49:47;;;;;;;19.27;14.50;;;;;;;;;;10452064;28;20020;-85
2023/06/07 23:54:48;;;;;;;21.13;15.20;;;;;;;;;;10431521;28;20116;-84
2023/06/07 23:59:49;;;;;;;22.38;15.88;;;;;;;;;;10432960;28;20041;-85
